sensor_id;sensor_type;location;lat;lon;timestamp;temperature;humidity
21590;DHT22;10957;50.968;6.828;2023-04-03T00:00:09;2.90;1.00
21590;DHT22;10957;50.968;6.828;2023-04-03T00:05:11;2.90;1.00
21590;DHT22;10957;50.968;6.828;2023-04-03T00:10:12;2.40;1.00
21590;DHT22;10957;50.968;6.828;2023-04-03T00:15:14;2.10;1.00
21590;DHT22;10957;50.968;6.828;2023-04-03T00:20:16;2.50;1.00
21590;DHT22;10957;50.968;6.828;2023-04-03T00:25:17;2.40;1.00
21590;DHT22;10957;50.968;6.828;2023-04-03T00:30:20;2.20;1.00
21590;DHT22;10957;50.968;6.828;2023-04-03T00:35:23;2.20;1.00
21590;DHT22;10957;50.968;6.828;2023-04-03T00:40:26;2.40;1.00
21590;DHT22;10957;50.968;6.828;2023-04-03T00:45:34;2.40;1.00
21590;DHT22;10957;50.968;6.828;2023-04-03T00:50:39;2.20;1.00
21590;DHT22;10957;50.968;6.828;2023-04-03T00:55:42;2.20;1.00
21590;DHT22;10957;50.968;6.828;2023-04-03T01:00:48;2.20;1.00
21590;DHT22;10957;50.968;6.828;2023-04-03T01:05:52;2.00;1.00
21590;DHT22;10957;50.968;6.828;2023-04-03T01:10:54;2.00;1.00
21590;DHT22;10957;50.968;6.828;2023-04-03T01:16:01;1.90;1.00
21590;DHT22;10957;50.968;6.828;2023-04-03T01:26:48;1.70;1.00
21590;DHT22;10957;50.968;6.828;2023-04-03T01:31:58;1.80;1.00
21590;DHT22;10957;50.968;6.828;2023-04-03T01:37:01;1.60;1.00
21590;DHT22;10957;50.968;6.828;2023-04-03T01:42:02;1.70;1.00
21590;DHT22;10957;50.968;6.828;2023-04-03T01:47:08;1.60;1.00
21590;DHT22;10957;50.968;6.828;2023-04-03T01:52:11;1.40;1.00
21590;DHT22;10957;50.968;6.828;2023-04-03T01:57:12;1.30;1.00
21590;DHT22;10957;50.968;6.828;2023-04-03T02:02:16;1.30;1.00
21590;DHT22;10957;50.968;6.828;2023-04-03T02:07:17;1.30;6.10
21590;DHT22;10957;50.968;6.828;2023-04-03T02:12:19;0.80;14.80
21590;DHT22;10957;50.968;6.828;2023-04-03T02:17:20;1.30;28.90
21590;DHT22;10957;50.968;6.828;2023-04-03T02:22:22;1.20;54.50
21590;DHT22;10957;50.968;6.828;2023-04-03T02:27:23;1.10;90.60
21590;DHT22;10957;50.968;6.828;2023-04-03T02:32:24;1.10;99.90
21590;DHT22;10957;50.968;6.828;2023-04-03T02:37:26;0.80;99.90
21590;DHT22;10957;50.968;6.828;2023-04-03T02:42:29;0.50;99.90
21590;DHT22;10957;50.968;6.828;2023-04-03T02:47:30;0.60;99.90
21590;DHT22;10957;50.968;6.828;2023-04-03T02:52:32;0.60;99.90
21590;DHT22;10957;50.968;6.828;2023-04-03T02:57:33;0.30;99.90
21590;DHT22;10957;50.968;6.828;2023-04-03T03:02:35;0.20;99.90
21590;DHT22;10957;50.968;6.828;2023-04-03T03:07:36;0.50;99.90
21590;DHT22;10957;50.968;6.828;2023-04-03T03:12:37;0.20;99.90
21590;DHT22;10957;50.968;6.828;2023-04-03T03:17:38;0.20;99.90
21590;DHT22;10957;50.968;6.828;2023-04-03T03:22:40;0.30;99.90
21590;DHT22;10957;50.968;6.828;2023-04-03T03:27:42;0.50;99.90
21590;DHT22;10957;50.968;6.828;2023-04-03T03:32:43;0.30;99.90
21590;DHT22;10957;50.968;6.828;2023-04-03T03:37:44;0.20;99.90
21590;DHT22;10957;50.968;6.828;2023-04-03T03:42:46;0.50;99.90
21590;DHT22;10957;50.968;6.828;2023-04-03T03:47:47;0.30;99.90
21590;DHT22;10957;50.968;6.828;2023-04-03T03:52:49;0.10;99.90
21590;DHT22;10957;50.968;6.828;2023-04-03T03:57:50;-0.10;99.90
21590;DHT22;10957;50.968;6.828;2023-04-03T04:02:52;0.10;99.90
21590;DHT22;10957;50.968;6.828;2023-04-03T04:07:56;0.20;99.90
21590;DHT22;10957;50.968;6.828;2023-04-03T04:12:58;-0.10;99.90
21590;DHT22;10957;50.968;6.828;2023-04-03T04:18:02;-0.20;99.90
21590;DHT22;10957;50.968;6.828;2023-04-03T04:23:05;0.00;99.90
21590;DHT22;10957;50.968;6.828;2023-04-03T04:28:07;0.00;99.90
21590;DHT22;10957;50.968;6.828;2023-04-03T04:33:09;-0.50;99.90
21590;DHT22;10957;50.968;6.828;2023-04-03T04:38:11;0.00;1.00
21590;DHT22;10957;50.968;6.828;2023-04-03T04:43:12;-0.40;1.00
21590;DHT22;10957;50.968;6.828;2023-04-03T04:48:16;-0.70;1.00
21590;DHT22;10957;50.968;6.828;2023-04-03T04:53:18;0.00;1.00
21590;DHT22;10957;50.968;6.828;2023-04-03T04:58:19;-0.40;1.00
21590;DHT22;10957;50.968;6.828;2023-04-03T05:03:21;-0.30;1.00
21590;DHT22;10957;50.968;6.828;2023-04-03T05:08:22;-0.40;1.00
21590;DHT22;10957;50.968;6.828;2023-04-03T05:13:24;-0.20;1.00
21590;DHT22;10957;50.968;6.828;2023-04-03T05:18:26;-0.40;1.00
21590;DHT22;10957;50.968;6.828;2023-04-03T05:23:30;-0.20;1.00
21590;DHT22;10957;50.968;6.828;2023-04-03T05:28:33;0.00;1.00
21590;DHT22;10957;50.968;6.828;2023-04-03T05:33:34;-0.30;1.00
21590;DHT22;10957;50.968;6.828;2023-04-03T05:38:36;-0.20;1.00
21590;DHT22;10957;50.968;6.828;2023-04-03T05:43:38;0.00;1.00
21590;DHT22;10957;50.968;6.828;2023-04-03T05:48:42;0.20;1.00
21590;DHT22;10957;50.968;6.828;2023-04-03T05:53:47;0.10;1.00
21590;DHT22;10957;50.968;6.828;2023-04-03T05:58:49;0.20;1.00
21590;DHT22;10957;50.968;6.828;2023-04-03T06:03:50;0.50;1.00
21590;DHT22;10957;50.968;6.828;2023-04-03T06:08:52;0.20;1.00
21590;DHT22;10957;50.968;6.828;2023-04-03T06:13:54;0.50;1.00
21590;DHT22;10957;50.968;6.828;2023-04-03T06:18:55;0.70;1.00
21590;DHT22;10957;50.968;6.828;2023-04-03T06:23:58;0.60;1.00
21590;DHT22;10957;50.968;6.828;2023-04-03T06:29:00;0.70;1.00
21590;DHT22;10957;50.968;6.828;2023-04-03T06:34:01;1.00;99.90
21590;DHT22;10957;50.968;6.828;2023-04-03T06:39:02;1.30;99.90
21590;DHT22;10957;50.968;6.828;2023-04-03T06:44:04;0.80;99.90
21590;DHT22;10957;50.968;6.828;2023-04-03T06:49:06;0.90;99.90
21590;DHT22;10957;50.968;6.828;2023-04-03T06:54:10;1.80;99.90
21590;DHT22;10957;50.968;6.828;2023-04-03T06:59:12;2.40;99.90
21590;DHT22;10957;50.968;6.828;2023-04-03T07:04:17;2.50;99.90
21590;DHT22;10957;50.968;6.828;2023-04-03T07:09:18;3.00;99.90
21590;DHT22;10957;50.968;6.828;2023-04-03T07:14:21;3.50;1.00
21590;DHT22;10957;50.968;6.828;2023-04-03T07:19:22;4.20;1.00
21590;DHT22;10957;50.968;6.828;2023-04-03T07:24:25;4.20;1.00
21590;DHT22;10957;50.968;6.828;2023-04-03T07:29:27;4.80;1.00
21590;DHT22;10957;50.968;6.828;2023-04-03T07:34:28;4.90;1.00
21590;DHT22;10957;50.968;6.828;2023-04-03T07:39:29;5.00;1.00
21590;DHT22;10957;50.968;6.828;2023-04-03T07:44:30;5.50;1.00
21590;DHT22;10957;50.968;6.828;2023-04-03T07:49:32;5.80;99.90
21590;DHT22;10957;50.968;6.828;2023-04-03T07:54:34;6.00;99.90
21590;DHT22;10957;50.968;6.828;2023-04-03T07:59:35;5.90;99.90
21590;DHT22;10957;50.968;6.828;2023-04-03T08:04:36;6.30;99.90
21590;DHT22;10957;50.968;6.828;2023-04-03T08:09:37;6.70;99.90
21590;DHT22;10957;50.968;6.828;2023-04-03T08:14:39;7.20;99.90
21590;DHT22;10957;50.968;6.828;2023-04-03T08:19:41;7.20;99.90
21590;DHT22;10957;50.968;6.828;2023-04-03T08:24:42;7.00;99.90
21590;DHT22;10957;50.968;6.828;2023-04-03T08:29:43;7.60;99.90
21590;DHT22;10957;50.968;6.828;2023-04-03T08:34:45;7.30;99.90
21590;DHT22;10957;50.968;6.828;2023-04-03T08:39:47;7.40;99.90
21590;DHT22;10957;50.968;6.828;2023-04-03T08:45:03;7.60;99.90
21590;DHT22;10957;50.968;6.828;2023-04-03T08:50:12;7.70;99.90
21590;DHT22;10957;50.968;6.828;2023-04-03T08:55:28;8.20;99.90
21590;DHT22;10957;50.968;6.828;2023-04-03T09:05:48;8.10;99.90
21590;DHT22;10957;50.968;6.828;2023-04-03T09:21:38;8.50;99.90
21590;DHT22;10957;50.968;6.828;2023-04-03T09:26:56;8.70;99.90
21590;DHT22;10957;50.968;6.828;2023-04-03T09:32:01;8.90;99.90
21590;DHT22;10957;50.968;6.828;2023-04-03T09:37:04;8.60;99.90
21590;DHT22;10957;50.968;6.828;2023-04-03T09:42:25;8.80;99.90
21590;DHT22;10957;50.968;6.828;2023-04-03T09:47:27;8.80;99.90
21590;DHT22;10957;50.968;6.828;2023-04-03T09:52:29;9.10;99.90
21590;DHT22;10957;50.968;6.828;2023-04-03T09:57:33;9.10;99.90
21590;DHT22;10957;50.968;6.828;2023-04-03T10:02:35;9.50;99.90
21590;DHT22;10957;50.968;6.828;2023-04-03T10:07:38;8.80;99.90
21590;DHT22;10957;50.968;6.828;2023-04-03T10:12:39;8.50;99.90
21590;DHT22;10957;50.968;6.828;2023-04-03T10:17:47;9.00;99.90
21590;DHT22;10957;50.968;6.828;2023-04-03T10:29:36;9.20;99.90
21590;DHT22;10957;50.968;6.828;2023-04-03T10:34:21;9.10;99.90
21590;DHT22;10957;50.968;6.828;2023-04-03T10:39:45;9.70;99.90
21590;DHT22;10957;50.968;6.828;2023-04-03T10:55:36;9.50;77.80
21590;DHT22;10957;50.968;6.828;2023-04-03T11:00:43;9.50;90.70
21590;DHT22;10957;50.968;6.828;2023-04-03T11:05:51;9.40;81.20
21590;DHT22;10957;50.968;6.828;2023-04-03T11:10:58;9.60;66.80
21590;DHT22;10957;50.968;6.828;2023-04-03T11:16:01;9.60;88.00
21590;DHT22;10957;50.968;6.828;2023-04-03T11:21:16;9.80;99.90
21590;DHT22;10957;50.968;6.828;2023-04-03T11:26:23;10.00;93.20
21590;DHT22;10957;50.968;6.828;2023-04-03T11:31:29;9.90;61.50
21590;DHT22;10957;50.968;6.828;2023-04-03T11:36:44;10.10;81.80
21590;DHT22;10957;50.968;6.828;2023-04-03T11:41:47;9.90;75.60
21590;DHT22;10957;50.968;6.828;2023-04-03T11:46:53;10.00;91.50
21590;DHT22;10957;50.968;6.828;2023-04-03T11:51:54;9.90;84.40
21590;DHT22;10957;50.968;6.828;2023-04-03T11:56:56;10.20;76.10
21590;DHT22;10957;50.968;6.828;2023-04-03T12:01:57;10.10;55.10
21590;DHT22;10957;50.968;6.828;2023-04-03T12:07:18;10.40;60.10
21590;DHT22;10957;50.968;6.828;2023-04-03T12:12:39;10.20;59.00
21590;DHT22;10957;50.968;6.828;2023-04-03T12:17:41;10.30;56.70
21590;DHT22;10957;50.968;6.828;2023-04-03T12:23:36;10.50;59.10
21590;DHT22;10957;50.968;6.828;2023-04-03T12:28:36;10.40;63.40
21590;DHT22;10957;50.968;6.828;2023-04-03T12:39:22;10.60;47.10
21590;DHT22;10957;50.968;6.828;2023-04-03T12:49:54;10.50;19.60
21590;DHT22;10957;50.968;6.828;2023-04-03T12:54:56;11.10;15.10
21590;DHT22;10957;50.968;6.828;2023-04-03T12:59:58;10.80;1.00
21590;DHT22;10957;50.968;6.828;2023-04-03T13:05:16;10.90;4.90
21590;DHT22;10957;50.968;6.828;2023-04-03T13:10:18;10.90;1.00
21590;DHT22;10957;50.968;6.828;2023-04-03T13:20:29;11.20;1.00
21590;DHT22;10957;50.968;6.828;2023-04-03T13:25:34;11.00;1.00
21590;DHT22;10957;50.968;6.828;2023-04-03T13:30:38;10.90;1.00
21590;DHT22;10957;50.968;6.828;2023-04-03T13:35:40;11.00;1.00
21590;DHT22;10957;50.968;6.828;2023-04-03T13:40:59;11.20;1.00
21590;DHT22;10957;50.968;6.828;2023-04-03T14:06:29;11.50;1.00
21590;DHT22;10957;50.968;6.828;2023-04-03T14:11:31;11.80;1.00
21590;DHT22;10957;50.968;6.828;2023-04-03T14:16:38;11.60;1.00
21590;DHT22;10957;50.968;6.828;2023-04-03T14:21:40;11.30;1.00
21590;DHT22;10957;50.968;6.828;2023-04-03T14:26:41;11.70;1.00
21590;DHT22;10957;50.968;6.828;2023-04-03T14:31:44;11.40;1.00
21590;DHT22;10957;50.968;6.828;2023-04-03T14:36:46;11.60;1.00
21590;DHT22;10957;50.968;6.828;2023-04-03T14:41:47;11.70;1.00
21590;DHT22;10957;50.968;6.828;2023-04-03T14:46:48;11.60;1.00
21590;DHT22;10957;50.968;6.828;2023-04-03T14:51:50;11.50;1.00
21590;DHT22;10957;50.968;6.828;2023-04-03T14:56:52;11.60;1.00
21590;DHT22;10957;50.968;6.828;2023-04-03T15:01:53;11.50;1.00
21590;DHT22;10957;50.968;6.828;2023-04-03T15:06:54;11.10;1.00
21590;DHT22;10957;50.968;6.828;2023-04-03T15:11:56;11.00;1.00
21590;DHT22;10957;50.968;6.828;2023-04-03T15:16:57;11.40;4.10
21590;DHT22;10957;50.968;6.828;2023-04-03T15:21:58;11.30;1.00
21590;DHT22;10957;50.968;6.828;2023-04-03T15:27:00;11.10;1.00
21590;DHT22;10957;50.968;6.828;2023-04-03T15:32:02;11.10;1.00
21590;DHT22;10957;50.968;6.828;2023-04-03T15:37:04;11.00;1.00
21590;DHT22;10957;50.968;6.828;2023-04-03T15:42:06;10.70;1.00
21590;DHT22;10957;50.968;6.828;2023-04-03T15:47:07;10.70;1.00
21590;DHT22;10957;50.968;6.828;2023-04-03T15:52:09;10.80;1.00
21590;DHT22;10957;50.968;6.828;2023-04-03T15:57:10;10.90;1.00
21590;DHT22;10957;50.968;6.828;2023-04-03T16:02:12;10.50;1.00
21590;DHT22;10957;50.968;6.828;2023-04-03T16:07:14;10.60;1.00
21590;DHT22;10957;50.968;6.828;2023-04-03T16:12:15;10.20;1.00
21590;DHT22;10957;50.968;6.828;2023-04-03T16:17:16;10.10;1.00
21590;DHT22;10957;50.968;6.828;2023-04-03T16:22:18;10.20;1.00
21590;DHT22;10957;50.968;6.828;2023-04-03T16:27:20;10.10;1.00
21590;DHT22;10957;50.968;6.828;2023-04-03T16:32:22;9.90;1.00
21590;DHT22;10957;50.968;6.828;2023-04-03T16:37:24;9.80;1.00
21590;DHT22;10957;50.968;6.828;2023-04-03T16:42:26;9.70;1.00
21590;DHT22;10957;50.968;6.828;2023-04-03T16:47:27;9.60;1.00
21590;DHT22;10957;50.968;6.828;2023-04-03T16:52:28;9.40;1.00
21590;DHT22;10957;50.968;6.828;2023-04-03T16:57:30;9.40;1.00
21590;DHT22;10957;50.968;6.828;2023-04-03T17:02:31;9.40;1.00
21590;DHT22;10957;50.968;6.828;2023-04-03T17:07:32;9.30;1.00
21590;DHT22;10957;50.968;6.828;2023-04-03T17:12:34;8.90;1.00
21590;DHT22;10957;50.968;6.828;2023-04-03T17:17:36;9.00;1.00
21590;DHT22;10957;50.968;6.828;2023-04-03T17:22:37;8.70;1.00
21590;DHT22;10957;50.968;6.828;2023-04-03T17:27:39;8.70;1.00
21590;DHT22;10957;50.968;6.828;2023-04-03T17:32:40;8.30;1.00
21590;DHT22;10957;50.968;6.828;2023-04-03T17:37:41;8.40;1.00
21590;DHT22;10957;50.968;6.828;2023-04-03T17:42:43;8.30;1.00
21590;DHT22;10957;50.968;6.828;2023-04-03T17:47:44;8.10;1.00
21590;DHT22;10957;50.968;6.828;2023-04-03T17:52:46;8.10;1.00
21590;DHT22;10957;50.968;6.828;2023-04-03T17:57:47;7.70;1.00
21590;DHT22;10957;50.968;6.828;2023-04-03T18:02:53;7.80;1.00
21590;DHT22;10957;50.968;6.828;2023-04-03T18:07:55;7.60;1.00
21590;DHT22;10957;50.968;6.828;2023-04-03T18:12:57;7.60;1.00
21590;DHT22;10957;50.968;6.828;2023-04-03T18:17:58;7.40;1.00
21590;DHT22;10957;50.968;6.828;2023-04-03T18:23:00;7.40;1.00
21590;DHT22;10957;50.968;6.828;2023-04-03T18:28:01;7.20;1.00
21590;DHT22;10957;50.968;6.828;2023-04-03T18:33:06;6.90;1.00
21590;DHT22;10957;50.968;6.828;2023-04-03T18:38:07;7.00;1.00
21590;DHT22;10957;50.968;6.828;2023-04-03T18:43:09;7.00;1.00
21590;DHT22;10957;50.968;6.828;2023-04-03T18:48:11;6.20;1.00
21590;DHT22;10957;50.968;6.828;2023-04-03T18:53:12;6.60;1.00
21590;DHT22;10957;50.968;6.828;2023-04-03T18:58:14;6.50;1.00
21590;DHT22;10957;50.968;6.828;2023-04-03T19:03:15;6.50;1.00
21590;DHT22;10957;50.968;6.828;2023-04-03T19:08:17;6.70;1.00
21590;DHT22;10957;50.968;6.828;2023-04-03T19:13:18;6.40;1.00
21590;DHT22;10957;50.968;6.828;2023-04-03T19:18:19;6.40;1.00
21590;DHT22;10957;50.968;6.828;2023-04-03T19:23:22;6.40;1.00
21590;DHT22;10957;50.968;6.828;2023-04-03T19:28:24;6.00;1.00
21590;DHT22;10957;50.968;6.828;2023-04-03T19:33:27;6.00;1.00
21590;DHT22;10957;50.968;6.828;2023-04-03T19:38:28;6.10;1.00
21590;DHT22;10957;50.968;6.828;2023-04-03T19:43:31;5.60;1.00
21590;DHT22;10957;50.968;6.828;2023-04-03T19:48:33;6.10;1.00
21590;DHT22;10957;50.968;6.828;2023-04-03T19:53:34;5.70;1.00
21590;DHT22;10957;50.968;6.828;2023-04-03T19:58:39;5.70;1.00
21590;DHT22;10957;50.968;6.828;2023-04-03T20:03:45;5.90;1.00
21590;DHT22;10957;50.968;6.828;2023-04-03T20:08:48;5.50;1.00
21590;DHT22;10957;50.968;6.828;2023-04-03T20:13:55;5.20;1.00
21590;DHT22;10957;50.968;6.828;2023-04-03T20:19:04;5.40;1.00
21590;DHT22;10957;50.968;6.828;2023-04-03T20:24:10;5.30;1.00
21590;DHT22;10957;50.968;6.828;2023-04-03T20:29:15;5.20;1.00
21590;DHT22;10957;50.968;6.828;2023-04-03T20:34:20;5.10;1.00
21590;DHT22;10957;50.968;6.828;2023-04-03T20:39:21;4.70;1.00
21590;DHT22;10957;50.968;6.828;2023-04-03T20:44:24;5.00;1.00
21590;DHT22;10957;50.968;6.828;2023-04-03T20:49:26;4.80;1.00
21590;DHT22;10957;50.968;6.828;2023-04-03T20:54:27;4.80;1.00
21590;DHT22;10957;50.968;6.828;2023-04-03T20:59:29;4.60;1.00
21590;DHT22;10957;50.968;6.828;2023-04-03T21:04:40;4.50;1.00
21590;DHT22;10957;50.968;6.828;2023-04-03T21:21:03;4.30;1.00
21590;DHT22;10957;50.968;6.828;2023-04-03T21:26:05;4.30;1.00
21590;DHT22;10957;50.968;6.828;2023-04-03T21:31:07;3.80;1.00
21590;DHT22;10957;50.968;6.828;2023-04-03T21:36:09;4.30;1.00
21590;DHT22;10957;50.968;6.828;2023-04-03T21:41:10;4.10;1.00
21590;DHT22;10957;50.968;6.828;2023-04-03T21:46:11;3.90;1.00
21590;DHT22;10957;50.968;6.828;2023-04-03T21:51:13;4.00;1.00
21590;DHT22;10957;50.968;6.828;2023-04-03T21:56:15;3.80;1.00
21590;DHT22;10957;50.968;6.828;2023-04-03T22:01:18;4.00;1.00
21590;DHT22;10957;50.968;6.828;2023-04-03T22:06:20;3.80;1.00
21590;DHT22;10957;50.968;6.828;2023-04-03T22:11:21;3.60;1.00
21590;DHT22;10957;50.968;6.828;2023-04-03T22:16:24;3.50;1.00
21590;DHT22;10957;50.968;6.828;2023-04-03T22:21:26;3.60;1.00
21590;DHT22;10957;50.968;6.828;2023-04-03T22:26:27;3.40;1.00
21590;DHT22;10957;50.968;6.828;2023-04-03T22:31:28;3.30;1.30
21590;DHT22;10957;50.968;6.828;2023-04-03T22:36:30;3.20;1.90
21590;DHT22;10957;50.968;6.828;2023-04-03T22:41:31;3.00;1.00
21590;DHT22;10957;50.968;6.828;2023-04-03T22:46:32;3.10;6.10
21590;DHT22;10957;50.968;6.828;2023-04-03T22:51:33;3.00;5.80
21590;DHT22;10957;50.968;6.828;2023-04-03T22:56:35;2.80;14.80
21590;DHT22;10957;50.968;6.828;2023-04-03T23:01:36;2.70;19.20
21590;DHT22;10957;50.968;6.828;2023-04-03T23:06:37;2.80;22.10
21590;DHT22;10957;50.968;6.828;2023-04-03T23:11:39;2.80;21.50
21590;DHT22;10957;50.968;6.828;2023-04-03T23:16:40;2.90;21.20
21590;DHT22;10957;50.968;6.828;2023-04-03T23:21:42;2.50;21.50
21590;DHT22;10957;50.968;6.828;2023-04-03T23:26:43;2.70;30.00
21590;DHT22;10957;50.968;6.828;2023-04-03T23:31:44;2.30;33.20
21590;DHT22;10957;50.968;6.828;2023-04-03T23:36:46;1.90;42.50
21590;DHT22;10957;50.968;6.828;2023-04-03T23:41:48;2.00;35.10
21590;DHT22;10957;50.968;6.828;2023-04-03T23:46:50;2.50;36.00
21590;DHT22;10957;50.968;6.828;2023-04-03T23:51:51;2.30;28.20
21590;DHT22;10957;50.968;6.828;2023-04-03T23:56:54;1.90;39.70
